sensor_id;sensor_type;location;lat;lon;timestamp;pressure;altitude;pressure_sealevel;temperature;humidity
75640;BME280;64233;51.486;6.332;2023-04-03T00:00:48;102618.50;;;-1.17;100.00
75640;BME280;64233;51.486;6.332;2023-04-03T00:03:14;102618.50;;;-1.17;100.00
75640;BME280;64233;51.486;6.332;2023-04-03T00:05:39;102622.91;;;-1.18;100.00
75640;BME280;64233;51.486;6.332;2023-04-03T00:08:05;102625.41;;;-1.16;100.00
75640;BME280;64233;51.486;6.332;2023-04-03T00:10:33;102633.97;;;-1.24;100.00
75640;BME280;64233;51.486;6.332;2023-04-03T00:12:58;102634.22;;;-1.27;100.00
75640;BME280;64233;51.486;6.332;2023-04-03T00:15:23;102627.28;;;-1.28;100.00
75640;BME280;64233;51.486;6.332;2023-04-03T00:17:49;102634.75;;;-1.45;100.00
75640;BME280;64233;51.486;6.332;2023-04-03T00:20:14;102633.53;;;-1.73;100.00
75640;BME280;64233;51.486;6.332;2023-04-03T00:22:40;102638.28;;;-1.99;100.00
75640;BME280;64233;51.486;6.332;2023-04-03T00:25:06;102636.56;;;-1.89;100.00
75640;BME280;64233;51.486;6.332;2023-04-03T00:27:31;102629.25;;;-1.74;100.00
75640;BME280;64233;51.486;6.332;2023-04-03T00:29:56;102634.97;;;-1.69;100.00
75640;BME280;64233;51.486;6.332;2023-04-03T00:32:22;102642.13;;;-1.60;100.00
75640;BME280;64233;51.486;6.332;2023-04-03T00:34:47;102642.09;;;-1.48;100.00
75640;BME280;64233;51.486;6.332;2023-04-03T00:37:12;102641.97;;;-1.47;100.00
75640;BME280;64233;51.486;6.332;2023-04-03T00:39:37;102639.34;;;-1.47;100.00
75640;BME280;64233;51.486;6.332;2023-04-03T00:42:03;102647.44;;;-1.39;100.00
75640;BME280;64233;51.486;6.332;2023-04-03T00:46:53;102653.19;;;-1.45;100.00
75640;BME280;64233;51.486;6.332;2023-04-03T00:49:19;102651.16;;;-1.41;100.00
75640;BME280;64233;51.486;6.332;2023-04-03T00:51:45;102655.34;;;-1.39;100.00
75640;BME280;64233;51.486;6.332;2023-04-03T00:54:11;102645.56;;;-1.48;100.00
75640;BME280;64233;51.486;6.332;2023-04-03T00:56:37;102639.75;;;-1.63;100.00
75640;BME280;64233;51.486;6.332;2023-04-03T00:59:12;102648.63;;;-1.75;100.00
75640;BME280;64233;51.486;6.332;2023-04-03T01:01:40;102639.78;;;-1.74;100.00
75640;BME280;64233;51.486;6.332;2023-04-03T01:04:05;102637.47;;;-1.67;100.00
75640;BME280;64233;51.486;6.332;2023-04-03T01:06:34;102646.34;;;-1.68;100.00
75640;BME280;64233;51.486;6.332;2023-04-03T01:09:00;102640.28;;;-1.92;100.00
75640;BME280;64233;51.486;6.332;2023-04-03T01:11:26;102634.44;;;-1.95;100.00
75640;BME280;64233;51.486;6.332;2023-04-03T01:13:52;102644.09;;;-1.96;100.00
75640;BME280;64233;51.486;6.332;2023-04-03T01:16:17;102651.38;;;-1.77;100.00
75640;BME280;64233;51.486;6.332;2023-04-03T01:18:43;102654.44;;;-1.28;100.00
75640;BME280;64233;51.486;6.332;2023-04-03T01:26:31;102660.53;;;-1.48;100.00
75640;BME280;64233;51.486;6.332;2023-04-03T01:28:58;102658.44;;;-1.66;100.00
75640;BME280;64233;51.486;6.332;2023-04-03T01:31:27;102663.31;;;-1.61;100.00
75640;BME280;64233;51.486;6.332;2023-04-03T01:33:54;102663.03;;;-1.47;100.00
75640;BME280;64233;51.486;6.332;2023-04-03T01:36:25;102662.13;;;-1.04;100.00
75640;BME280;64233;51.486;6.332;2023-04-03T01:38:52;102672.56;;;-0.60;100.00
75640;BME280;64233;51.486;6.332;2023-04-03T01:41:18;102673.41;;;-0.59;100.00
75640;BME280;64233;51.486;6.332;2023-04-03T01:43:46;102665.69;;;-0.51;100.00
75640;BME280;64233;51.486;6.332;2023-04-03T01:46:11;102674.28;;;-0.49;100.00
75640;BME280;64233;51.486;6.332;2023-04-03T01:48:36;102679.28;;;-0.46;100.00
75640;BME280;64233;51.486;6.332;2023-04-03T01:51:02;102672.59;;;-0.50;100.00
75640;BME280;64233;51.486;6.332;2023-04-03T01:53:27;102672.56;;;-0.60;100.00
75640;BME280;64233;51.486;6.332;2023-04-03T01:55:52;102666.66;;;-0.73;100.00
75640;BME280;64233;51.486;6.332;2023-04-03T01:58:18;102674.81;;;-0.76;100.00
75640;BME280;64233;51.486;6.332;2023-04-03T02:00:43;102674.09;;;-0.78;100.00
75640;BME280;64233;51.486;6.332;2023-04-03T02:03:08;102664.41;;;-0.78;100.00
75640;BME280;64233;51.486;6.332;2023-04-03T02:05:33;102675.09;;;-0.79;100.00
75640;BME280;64233;51.486;6.332;2023-04-03T02:07:59;102675.16;;;-0.91;100.00
75640;BME280;64233;51.486;6.332;2023-04-03T02:10:25;102672.13;;;-0.86;100.00
75640;BME280;64233;51.486;6.332;2023-04-03T02:12:50;102676.47;;;-0.75;100.00
75640;BME280;64233;51.486;6.332;2023-04-03T02:15:16;102679.97;;;-0.75;100.00
75640;BME280;64233;51.486;6.332;2023-04-03T02:17:41;102675.91;;;-0.79;100.00
75640;BME280;64233;51.486;6.332;2023-04-03T02:20:07;102680.72;;;-0.84;100.00
75640;BME280;64233;51.486;6.332;2023-04-03T02:22:32;102679.19;;;-0.87;100.00
75640;BME280;64233;51.486;6.332;2023-04-03T02:25:05;102676.06;;;-0.80;100.00
75640;BME280;64233;51.486;6.332;2023-04-03T02:27:37;102678.44;;;-0.77;100.00
75640;BME280;64233;51.486;6.332;2023-04-03T02:30:04;102669.81;;;-0.79;100.00
75640;BME280;64233;51.486;6.332;2023-04-03T02:32:29;102687.50;;;-0.70;100.00
75640;BME280;64233;51.486;6.332;2023-04-03T02:34:55;102684.47;;;-0.65;100.00
75640;BME280;64233;51.486;6.332;2023-04-03T02:37:20;102686.84;;;-0.62;100.00
75640;BME280;64233;51.486;6.332;2023-04-03T02:39:46;102686.41;;;-0.67;100.00
75640;BME280;64233;51.486;6.332;2023-04-03T02:42:11;102686.28;;;-0.66;100.00
75640;BME280;64233;51.486;6.332;2023-04-03T02:44:36;102691.22;;;-0.73;100.00
75640;BME280;64233;51.486;6.332;2023-04-03T02:47:02;102691.69;;;-0.67;100.00
75640;BME280;64233;51.486;6.332;2023-04-03T02:49:28;102692.63;;;-0.68;100.00
75640;BME280;64233;51.486;6.332;2023-04-03T02:51:53;102690.00;;;-0.68;100.00
75640;BME280;64233;51.486;6.332;2023-04-03T02:54:18;102686.78;;;-0.72;100.00
75640;BME280;64233;51.486;6.332;2023-04-03T02:56:43;102690.13;;;-0.70;100.00
75640;BME280;64233;51.486;6.332;2023-04-03T02:59:09;102686.94;;;-0.74;100.00
75640;BME280;64233;51.486;6.332;2023-04-03T03:01:34;102687.44;;;-0.80;100.00
75640;BME280;64233;51.486;6.332;2023-04-03T03:04:00;102689.63;;;-0.85;100.00
75640;BME280;64233;51.486;6.332;2023-04-03T03:06:26;102680.47;;;-0.81;100.00
75640;BME280;64233;51.486;6.332;2023-04-03T03:08:51;102685.25;;;-0.75;100.00
75640;BME280;64233;51.486;6.332;2023-04-03T03:11:17;102686.19;;;-0.76;100.00
75640;BME280;64233;51.486;6.332;2023-04-03T03:13:42;102689.22;;;-0.80;100.00
75640;BME280;64233;51.486;6.332;2023-04-03T03:16:08;102679.50;;;-0.80;100.00
75640;BME280;64233;51.486;6.332;2023-04-03T03:18:33;102691.00;;;-0.81;100.00
75640;BME280;64233;51.486;6.332;2023-04-03T03:21:00;102685.75;;;-0.81;100.00
75640;BME280;64233;51.486;6.332;2023-04-03T03:23:28;102687.88;;;-0.75;100.00
75640;BME280;64233;51.486;6.332;2023-04-03T03:26:03;102682.34;;;-0.72;100.00
75640;BME280;64233;51.486;6.332;2023-04-03T03:28:28;102681.53;;;-0.72;100.00
75640;BME280;64233;51.486;6.332;2023-04-03T03:30:54;102681.47;;;-0.82;100.00
75640;BME280;64233;51.486;6.332;2023-04-03T03:33:26;102689.78;;;-0.77;100.00
75640;BME280;64233;51.486;6.332;2023-04-03T03:35:59;102690.06;;;-0.80;100.00
75640;BME280;64233;51.486;6.332;2023-04-03T03:38:24;102687.88;;;-0.75;100.00
75640;BME280;64233;51.486;6.332;2023-04-03T03:40:50;102682.75;;;-0.76;100.00
75640;BME280;64233;51.486;6.332;2023-04-03T03:43:16;102694.50;;;-0.80;100.00
75640;BME280;64233;51.486;6.332;2023-04-03T03:45:42;102693.09;;;-0.84;100.00
75640;BME280;64233;51.486;6.332;2023-04-03T03:48:08;102693.22;;;-0.86;100.00
75640;BME280;64233;51.486;6.332;2023-04-03T03:50:33;102698.50;;;-0.86;100.00
75640;BME280;64233;51.486;6.332;2023-04-03T03:53:00;102698.81;;;-0.79;100.00
75640;BME280;64233;51.486;6.332;2023-04-03T03:55:25;102697.97;;;-0.80;100.00
75640;BME280;64233;51.486;6.332;2023-04-03T03:57:51;102700.53;;;-0.90;100.00
75640;BME280;64233;51.486;6.332;2023-04-03T04:00:17;102700.34;;;-0.77;100.00
75640;BME280;64233;51.486;6.332;2023-04-03T04:02:42;102705.25;;;-0.72;100.00
75640;BME280;64233;51.486;6.332;2023-04-03T04:05:08;102702.75;;;-0.95;100.00
75640;BME280;64233;51.486;6.332;2023-04-03T04:07:33;102714.53;;;-0.78;100.00
75640;BME280;64233;51.486;6.332;2023-04-03T04:09:58;102712.66;;;-0.66;100.00
75640;BME280;64233;51.486;6.332;2023-04-03T04:12:24;102708.06;;;-0.64;100.00
75640;BME280;64233;51.486;6.332;2023-04-03T04:14:49;102710.59;;;-0.62;100.00
75640;BME280;64233;51.486;6.332;2023-04-03T04:17:14;102713.03;;;-0.71;100.00
75640;BME280;64233;51.486;6.332;2023-04-03T04:19:40;102718.56;;;-0.74;100.00
75640;BME280;64233;51.486;6.332;2023-04-03T04:22:05;102718.50;;;-0.62;100.00
75640;BME280;64233;51.486;6.332;2023-04-03T04:24:30;102722.88;;;-0.73;100.00
75640;BME280;64233;51.486;6.332;2023-04-03T04:26:56;102724.94;;;-0.76;100.00
75640;BME280;64233;51.486;6.332;2023-04-03T04:29:21;102720.75;;;-0.79;100.00
75640;BME280;64233;51.486;6.332;2023-04-03T04:31:46;102716.00;;;-0.85;100.00
75640;BME280;64233;51.486;6.332;2023-04-03T04:34:12;102722.66;;;-0.81;100.00
75640;BME280;64233;51.486;6.332;2023-04-03T04:36:38;102721.16;;;-0.83;100.00
75640;BME280;64233;51.486;6.332;2023-04-03T04:39:03;102736.50;;;-0.89;100.00
75640;BME280;64233;51.486;6.332;2023-04-03T04:41:29;102732.31;;;-0.91;100.00
75640;BME280;64233;51.486;6.332;2023-04-03T04:43:54;102732.94;;;-0.99;100.00
75640;BME280;64233;51.486;6.332;2023-04-03T04:46:19;102731.19;;;-1.10;100.00
75640;BME280;64233;51.486;6.332;2023-04-03T04:48:45;102731.09;;;-1.19;100.00
75640;BME280;64233;51.486;6.332;2023-04-03T04:51:11;102735.03;;;-1.14;100.00
75640;BME280;64233;51.486;6.332;2023-04-03T04:53:36;102740.78;;;-1.09;100.00
75640;BME280;64233;51.486;6.332;2023-04-03T04:56:02;102738.75;;;-1.16;100.00
75640;BME280;64233;51.486;6.332;2023-04-03T04:58:28;102741.63;;;-1.19;100.00
75640;BME280;64233;51.486;6.332;2023-04-03T05:01:06;102741.06;;;-1.23;100.00
75640;BME280;64233;51.486;6.332;2023-04-03T05:03:32;102741.19;;;-1.25;100.00
75640;BME280;64233;51.486;6.332;2023-04-03T05:05:57;102741.41;;;-1.28;100.00
75640;BME280;64233;51.486;6.332;2023-04-03T05:08:30;102739.88;;;-1.30;100.00
75640;BME280;64233;51.486;6.332;2023-04-03T05:10:56;102737.09;;;-1.17;100.00
75640;BME280;64233;51.486;6.332;2023-04-03T05:13:22;102743.69;;;-1.23;100.00
75640;BME280;64233;51.486;6.332;2023-04-03T05:15:47;102743.63;;;-1.00;100.00
75640;BME280;64233;51.486;6.332;2023-04-03T05:18:12;102742.81;;;-1.12;100.00
75640;BME280;64233;51.486;6.332;2023-04-03T05:20:38;102753.09;;;-1.09;100.00
75640;BME280;64233;51.486;6.332;2023-04-03T05:23:03;102754.41;;;-1.04;100.00
75640;BME280;64233;51.486;6.332;2023-04-03T05:25:29;102754.69;;;-1.18;100.00
75640;BME280;64233;51.486;6.332;2023-04-03T05:27:54;102753.00;;;-1.08;100.00
75640;BME280;64233;51.486;6.332;2023-04-03T05:30:20;102759.66;;;-1.04;100.00
75640;BME280;64233;51.486;6.332;2023-04-03T05:32:45;102753.06;;;-0.98;100.00
75640;BME280;64233;51.486;6.332;2023-04-03T05:35:10;102764.50;;;-1.09;100.00
75640;BME280;64233;51.486;6.332;2023-04-03T05:37:36;102764.72;;;-1.00;100.00
75640;BME280;64233;51.486;6.332;2023-04-03T05:40:03;102764.84;;;-1.02;100.00
75640;BME280;64233;51.486;6.332;2023-04-03T05:42:28;102760.88;;;-0.96;100.00
75640;BME280;64233;51.486;6.332;2023-04-03T05:44:54;102772.81;;;-0.92;100.00
75640;BME280;64233;51.486;6.332;2023-04-03T05:47:20;102776.09;;;-1.00;100.00
75640;BME280;64233;51.486;6.332;2023-04-03T05:49:45;102778.59;;;-0.98;100.00
75640;BME280;64233;51.486;6.332;2023-04-03T05:52:30;102778.13;;;-1.04;100.00
75640;BME280;64233;51.486;6.332;2023-04-03T05:54:56;102779.22;;;-1.06;100.00
75640;BME280;64233;51.486;6.332;2023-04-03T05:57:22;102780.53;;;-1.00;100.00
75640;BME280;64233;51.486;6.332;2023-04-03T05:59:48;102778.84;;;-1.01;100.00
75640;BME280;64233;51.486;6.332;2023-04-03T06:02:19;102787.22;;;-0.96;100.00
75640;BME280;64233;51.486;6.332;2023-04-03T06:04:44;102781.72;;;-0.93;100.00
75640;BME280;64233;51.486;6.332;2023-04-03T06:07:16;102789.09;;;-0.87;100.00
75640;BME280;64233;51.486;6.332;2023-04-03T06:09:42;102780.94;;;-0.84;100.00
75640;BME280;64233;51.486;6.332;2023-04-03T06:12:08;102786.44;;;-0.76;100.00
75640;BME280;64233;51.486;6.332;2023-04-03T06:14:33;102790.88;;;-0.76;100.00
75640;BME280;64233;51.486;6.332;2023-04-03T06:16:58;102790.28;;;-0.80;100.00
75640;BME280;64233;51.486;6.332;2023-04-03T06:19:25;102797.50;;;-0.82;100.00
75640;BME280;64233;51.486;6.332;2023-04-03T06:21:51;102796.84;;;-0.74;100.00
75640;BME280;64233;51.486;6.332;2023-04-03T06:24:17;102795.88;;;-0.73;100.00
75640;BME280;64233;51.486;6.332;2023-04-03T06:26:43;102799.09;;;-0.70;100.00
75640;BME280;64233;51.486;6.332;2023-04-03T06:29:08;102795.84;;;-0.62;100.00
75640;BME280;64233;51.486;6.332;2023-04-03T06:31:34;102810.31;;;-0.56;100.00
75640;BME280;64233;51.486;6.332;2023-04-03T06:33:59;102808.59;;;-0.46;100.00
75640;BME280;64233;51.486;6.332;2023-04-03T06:36:25;102803.78;;;-0.41;100.00
75640;BME280;64233;51.486;6.332;2023-04-03T06:38:51;102796.28;;;-0.36;100.00
75640;BME280;64233;51.486;6.332;2023-04-03T06:41:16;102802.75;;;-0.28;100.00
75640;BME280;64233;51.486;6.332;2023-04-03T06:43:45;102803.06;;;-0.22;100.00
75640;BME280;64233;51.486;6.332;2023-04-03T06:46:18;102805.88;;;-0.13;100.00
75640;BME280;64233;51.486;6.332;2023-04-03T06:48:44;102804.78;;;-0.11;100.00
75640;BME280;64233;51.486;6.332;2023-04-03T06:51:29;102805.41;;;0.03;100.00
75640;BME280;64233;51.486;6.332;2023-04-03T06:53:56;102804.78;;;0.10;100.00
75640;BME280;64233;51.486;6.332;2023-04-03T06:56:22;102802.56;;;0.15;100.00
75640;BME280;64233;51.486;6.332;2023-04-03T06:58:48;102808.28;;;0.21;100.00
75640;BME280;64233;51.486;6.332;2023-04-03T07:01:16;102811.13;;;0.29;100.00
75640;BME280;64233;51.486;6.332;2023-04-03T07:03:41;102822.81;;;0.36;100.00
75640;BME280;64233;51.486;6.332;2023-04-03T07:06:10;102817.13;;;0.41;100.00
75640;BME280;64233;51.486;6.332;2023-04-03T07:08:36;102809.06;;;0.42;100.00
75640;BME280;64233;51.486;6.332;2023-04-03T07:11:02;102815.34;;;0.51;100.00
75640;BME280;64233;51.486;6.332;2023-04-03T07:13:27;102821.22;;;0.55;100.00
75640;BME280;64233;51.486;6.332;2023-04-03T07:15:52;102820.28;;;0.65;100.00
75640;BME280;64233;51.486;6.332;2023-04-03T07:18:18;102827.97;;;0.78;100.00
75640;BME280;64233;51.486;6.332;2023-04-03T07:20:43;102824.63;;;0.76;100.00
75640;BME280;64233;51.486;6.332;2023-04-03T07:23:09;102829.09;;;0.85;100.00
75640;BME280;64233;51.486;6.332;2023-04-03T07:25:35;102836.50;;;1.01;100.00
75640;BME280;64233;51.486;6.332;2023-04-03T07:28:00;102841.25;;;0.98;100.00
75640;BME280;64233;51.486;6.332;2023-04-03T07:30:26;102838.19;;;1.02;100.00
75640;BME280;64233;51.486;6.332;2023-04-03T07:32:52;102844.75;;;1.08;100.00
75640;BME280;64233;51.486;6.332;2023-04-03T07:35:17;102844.75;;;1.08;100.00
75640;BME280;64233;51.486;6.332;2023-04-03T07:37:43;102840.59;;;1.25;100.00
75640;BME280;64233;51.486;6.332;2023-04-03T07:40:08;102842.66;;;1.22;100.00
75640;BME280;64233;51.486;6.332;2023-04-03T07:42:34;102847.97;;;1.31;100.00
75640;BME280;64233;51.486;6.332;2023-04-03T07:45:00;102849.78;;;1.41;100.00
75640;BME280;64233;51.486;6.332;2023-04-03T07:47:26;102848.09;;;1.49;100.00
75640;BME280;64233;51.486;6.332;2023-04-03T07:49:51;102848.94;;;1.60;100.00
75640;BME280;64233;51.486;6.332;2023-04-03T07:52:16;102847.00;;;1.52;100.00
75640;BME280;64233;51.486;6.332;2023-04-03T07:54:41;102850.31;;;1.64;100.00
75640;BME280;64233;51.486;6.332;2023-04-03T07:57:07;102850.47;;;1.62;100.00
75640;BME280;64233;51.486;6.332;2023-04-03T07:59:32;102850.03;;;1.77;100.00
75640;BME280;64233;51.486;6.332;2023-04-03T08:01:58;102849.59;;;1.81;100.00
75640;BME280;64233;51.486;6.332;2023-04-03T08:04:23;102859.06;;;1.94;100.00
75640;BME280;64233;51.486;6.332;2023-04-03T08:06:49;102858.59;;;2.18;100.00
75640;BME280;64233;51.486;6.332;2023-04-03T08:09:17;102853.59;;;2.15;100.00
75640;BME280;64233;51.486;6.332;2023-04-03T08:11:43;102861.69;;;2.13;100.00
75640;BME280;64233;51.486;6.332;2023-04-03T08:14:09;102858.31;;;2.21;100.00
75640;BME280;64233;51.486;6.332;2023-04-03T08:16:40;102866.09;;;2.32;100.00
75640;BME280;64233;51.486;6.332;2023-04-03T08:19:06;102860.91;;;2.40;100.00
75640;BME280;64233;51.486;6.332;2023-04-03T08:21:32;102870.16;;;2.64;100.00
75640;BME280;64233;51.486;6.332;2023-04-03T08:23:57;102862.69;;;3.05;100.00
75640;BME280;64233;51.486;6.332;2023-04-03T08:26:23;102866.06;;;2.98;100.00
75640;BME280;64233;51.486;6.332;2023-04-03T08:28:49;102853.84;;;2.59;100.00
75640;BME280;64233;51.486;6.332;2023-04-03T08:31:17;102865.22;;;2.97;100.00
75640;BME280;64233;51.486;6.332;2023-04-03T08:33:44;102863.19;;;2.91;100.00
75640;BME280;64233;51.486;6.332;2023-04-03T08:36:27;102865.34;;;2.78;100.00
75640;BME280;64233;51.486;6.332;2023-04-03T08:38:53;102857.28;;;2.69;100.00
75640;BME280;64233;51.486;6.332;2023-04-03T08:41:33;102863.72;;;2.95;100.00
75640;BME280;64233;51.486;6.332;2023-04-03T08:47:02;102867.47;;;3.20;100.00
75640;BME280;64233;51.486;6.332;2023-04-03T08:49:33;102866.78;;;3.18;100.00
75640;BME280;64233;51.486;6.332;2023-04-03T08:52:04;102866.13;;;3.34;100.00
75640;BME280;64233;51.486;6.332;2023-04-03T08:54:34;102878.03;;;3.30;95.73
75640;BME280;64233;51.486;6.332;2023-04-03T08:57:02;102873.03;;;3.44;98.10
75640;BME280;64233;51.486;6.332;2023-04-03T08:59:33;102861.88;;;3.59;99.68
75640;BME280;64233;51.486;6.332;2023-04-03T09:02:01;102865.81;;;3.55;93.86
75640;BME280;64233;51.486;6.332;2023-04-03T09:04:31;102856.09;;;3.45;86.81
75640;BME280;64233;51.486;6.332;2023-04-03T09:07:09;102855.09;;;3.65;86.15
75640;BME280;64233;51.486;6.332;2023-04-03T09:09:41;102863.41;;;3.88;89.69
75640;BME280;64233;51.486;6.332;2023-04-03T09:12:24;102857.69;;;3.74;83.12
75640;BME280;64233;51.486;6.332;2023-04-03T09:15:17;102857.72;;;3.83;80.71
75640;BME280;64233;51.486;6.332;2023-04-03T09:18:12;102862.50;;;3.97;78.00
75640;BME280;64233;51.486;6.332;2023-04-03T09:23:56;102853.56;;;4.33;73.04
75640;BME280;64233;51.486;6.332;2023-04-03T09:26:28;102860.50;;;3.99;67.77
75640;BME280;64233;51.486;6.332;2023-04-03T09:28:59;102871.00;;;4.35;73.27
75640;BME280;64233;51.486;6.332;2023-04-03T09:31:37;102861.84;;;4.29;72.44
75640;BME280;64233;51.486;6.332;2023-04-03T09:34:09;102865.03;;;4.68;76.77
75640;BME280;64233;51.486;6.332;2023-04-03T09:36:59;102864.31;;;4.57;70.98
75640;BME280;64233;51.486;6.332;2023-04-03T09:39:32;102856.38;;;4.65;72.23
75640;BME280;64233;51.486;6.332;2023-04-03T09:42:00;102855.88;;;4.70;70.52
75640;BME280;64233;51.486;6.332;2023-04-03T09:44:37;102861.78;;;4.47;66.01
75640;BME280;64233;51.486;6.332;2023-04-03T09:47:30;102859.81;;;4.50;66.11
75640;BME280;64233;51.486;6.332;2023-04-03T09:52:47;102848.47;;;4.82;70.40
75640;BME280;64233;51.486;6.332;2023-04-03T09:55:16;102855.97;;;4.87;69.03
75640;BME280;64233;51.486;6.332;2023-04-03T09:57:44;102852.59;;;4.42;60.69
75640;BME280;64233;51.486;6.332;2023-04-03T10:02:49;102855.28;;;4.76;65.97
75640;BME280;64233;51.486;6.332;2023-04-03T10:05:42;102850.72;;;4.69;65.50
75640;BME280;64233;51.486;6.332;2023-04-03T10:10:39;102850.66;;;4.95;65.62
75640;BME280;64233;51.486;6.332;2023-04-03T10:13:19;102847.88;;;4.54;62.74
75640;BME280;64233;51.486;6.332;2023-04-03T10:15:51;102860.00;;;4.99;64.72
75640;BME280;64233;51.486;6.332;2023-04-03T10:20:48;102830.72;;;4.99;64.45
75640;BME280;64233;51.486;6.332;2023-04-03T10:26:02;102846.50;;;4.92;62.88
75640;BME280;64233;51.486;6.332;2023-04-03T10:28:45;102837.72;;;5.16;64.44
75640;BME280;64233;51.486;6.332;2023-04-03T10:31:33;102833.75;;;5.21;65.44
75640;BME280;64233;51.486;6.332;2023-04-03T10:34:08;102832.75;;;5.13;62.64
75640;BME280;64233;51.486;6.332;2023-04-03T10:42:26;102828.75;;;5.42;65.03
75640;BME280;64233;51.486;6.332;2023-04-03T10:50:23;102805.63;;;5.59;65.25
75640;BME280;64233;51.486;6.332;2023-04-03T10:53:07;102808.59;;;5.73;67.49
75640;BME280;64233;51.486;6.332;2023-04-03T10:55:46;102807.28;;;5.68;63.58
75640;BME280;64233;51.486;6.332;2023-04-03T10:58:38;102804.28;;;5.72;64.79
75640;BME280;64233;51.486;6.332;2023-04-03T11:01:11;102799.88;;;5.95;63.50
75640;BME280;64233;51.486;6.332;2023-04-03T11:03:41;102795.59;;;5.78;62.98
75640;BME280;64233;51.486;6.332;2023-04-03T11:06:16;102791.78;;;5.80;59.25
75640;BME280;64233;51.486;6.332;2023-04-03T11:09:18;102785.22;;;6.16;64.38
75640;BME280;64233;51.486;6.332;2023-04-03T11:11:46;102778.25;;;5.90;59.34
75640;BME280;64233;51.486;6.332;2023-04-03T11:14:22;102777.38;;;6.14;64.21
75640;BME280;64233;51.486;6.332;2023-04-03T11:17:45;102779.06;;;6.15;62.13
75640;BME280;64233;51.486;6.332;2023-04-03T11:19:49;102776.66;;;6.29;61.05
75640;BME280;64233;51.486;6.332;2023-04-03T11:22:33;102778.19;;;6.23;61.48
75640;BME280;64233;51.486;6.332;2023-04-03T11:25:15;102784.19;;;6.25;62.98
75640;BME280;64233;51.486;6.332;2023-04-03T11:27:55;102765.91;;;6.14;58.96
75640;BME280;64233;51.486;6.332;2023-04-03T11:36:18;102776.25;;;5.92;61.34
75640;BME280;64233;51.486;6.332;2023-04-03T11:38:46;102780.41;;;6.03;63.79
75640;BME280;64233;51.486;6.332;2023-04-03T11:41:13;102772.50;;;6.26;66.77
75640;BME280;64233;51.486;6.332;2023-04-03T11:46:51;102778.81;;;6.33;65.50
75640;BME280;64233;51.486;6.332;2023-04-03T12:05:54;102761.66;;;6.91;70.19
75640;BME280;64233;51.486;6.332;2023-04-03T12:11:31;102753.34;;;6.31;61.49
75640;BME280;64233;51.486;6.332;2023-04-03T12:19:33;102742.69;;;6.23;61.82
75640;BME280;64233;51.486;6.332;2023-04-03T12:24:29;102751.44;;;6.71;63.21
75640;BME280;64233;51.486;6.332;2023-04-03T12:48:38;102728.06;;;7.19;68.65
75640;BME280;64233;51.486;6.332;2023-04-03T12:51:04;102715.59;;;7.12;62.82
75640;BME280;64233;51.486;6.332;2023-04-03T12:53:35;102719.66;;;7.22;64.42
75640;BME280;64233;51.486;6.332;2023-04-03T12:56:21;102706.94;;;7.10;64.41
75640;BME280;64233;51.486;6.332;2023-04-03T12:58:48;102713.25;;;6.94;66.17
75640;BME280;64233;51.486;6.332;2023-04-03T13:01:16;102716.03;;;6.77;64.28
75640;BME280;64233;51.486;6.332;2023-04-03T13:03:45;102712.94;;;7.12;67.85
75640;BME280;64233;51.486;6.332;2023-04-03T13:06:30;102718.16;;;6.82;66.58
75640;BME280;64233;51.486;6.332;2023-04-03T13:09:14;102720.09;;;7.34;67.76
75640;BME280;64233;51.486;6.332;2023-04-03T13:11:43;102710.66;;;7.23;65.45
75640;BME280;64233;51.486;6.332;2023-04-03T13:14:17;102707.47;;;6.59;62.61
75640;BME280;64233;51.486;6.332;2023-04-03T13:16:55;102712.41;;;6.70;64.20
75640;BME280;64233;51.486;6.332;2023-04-03T13:19:23;102707.41;;;7.13;65.89
75640;BME280;64233;51.486;6.332;2023-04-03T13:21:52;102711.84;;;7.21;64.09
75640;BME280;64233;51.486;6.332;2023-04-03T13:24:21;102705.31;;;7.23;62.10
75640;BME280;64233;51.486;6.332;2023-04-03T13:26:47;102692.63;;;7.02;62.33
75640;BME280;64233;51.486;6.332;2023-04-03T13:29:25;102693.31;;;7.19;66.46
75640;BME280;64233;51.486;6.332;2023-04-03T13:31:54;102692.50;;;7.19;66.63
75640;BME280;64233;51.486;6.332;2023-04-03T13:34:21;102706.44;;;7.29;65.64
75640;BME280;64233;51.486;6.332;2023-04-03T13:41:44;102688.63;;;7.21;68.05
75640;BME280;64233;51.486;6.332;2023-04-03T13:46:53;102687.59;;;6.84;61.21
75640;BME280;64233;51.486;6.332;2023-04-03T13:49:22;102690.47;;;6.60;60.56
75640;BME280;64233;51.486;6.332;2023-04-03T13:51:52;102684.69;;;6.94;65.99
75640;BME280;64233;51.486;6.332;2023-04-03T13:54:24;102685.25;;;7.28;65.62
75640;BME280;64233;51.486;6.332;2023-04-03T13:56:54;102684.25;;;7.29;67.45
75640;BME280;64233;51.486;6.332;2023-04-03T13:59:28;102681.91;;;7.11;63.97
75640;BME280;64233;51.486;6.332;2023-04-03T14:04:31;102672.59;;;7.06;64.33
75640;BME280;64233;51.486;6.332;2023-04-03T14:06:57;102676.44;;;7.57;65.29
75640;BME280;64233;51.486;6.332;2023-04-03T14:09:25;102672.34;;;7.61;64.07
75640;BME280;64233;51.486;6.332;2023-04-03T14:11:54;102656.88;;;7.56;65.50
75640;BME280;64233;51.486;6.332;2023-04-03T14:14:30;102656.56;;;7.06;64.26
75640;BME280;64233;51.486;6.332;2023-04-03T14:17:10;102652.63;;;6.79;60.93
75640;BME280;64233;51.486;6.332;2023-04-03T14:19:38;102662.50;;;6.94;60.86
75640;BME280;64233;51.486;6.332;2023-04-03T14:22:21;102658.91;;;7.39;64.29
75640;BME280;64233;51.486;6.332;2023-04-03T14:24:48;102659.72;;;7.55;66.18
75640;BME280;64233;51.486;6.332;2023-04-03T14:27:26;102663.09;;;7.04;63.70
75640;BME280;64233;51.486;6.332;2023-04-03T14:29:54;102655.63;;;6.99;62.27
75640;BME280;64233;51.486;6.332;2023-04-03T14:32:21;102645.13;;;6.98;64.34
75640;BME280;64233;51.486;6.332;2023-04-03T14:34:48;102646.44;;;7.02;62.72
75640;BME280;64233;51.486;6.332;2023-04-03T14:37:17;102636.00;;;7.07;61.44
75640;BME280;64233;51.486;6.332;2023-04-03T14:39:43;102643.56;;;7.03;65.14
75640;BME280;64233;51.486;6.332;2023-04-03T14:42:16;102634.72;;;7.03;62.66